createdAt,value
2022-10-03T00:01:18.882Z,12.70
2022-10-03T00:03:54.736Z,12.70
2022-10-03T00:06:50.217Z,12.70
2022-10-03T00:09:33.726Z,12.70
2022-10-03T00:12:12.619Z,12.60
2022-10-03T00:14:49.914Z,12.60
2022-10-03T00:17:26.330Z,12.60
2022-10-03T00:20:04.735Z,12.60
2022-10-03T00:22:40.741Z,12.60
2022-10-03T00:25:26.160Z,12.50
2022-10-03T00:28:08.869Z,12.50
2022-10-03T00:30:58.775Z,12.50
2022-10-03T00:33:33.881Z,12.40
2022-10-03T00:36:08.285Z,12.40
2022-10-03T00:39:04.422Z,12.40
2022-10-03T00:42:04.887Z,12.30
2022-10-03T00:45:08.769Z,12.20
2022-10-03T00:48:07.306Z,12.10
2022-10-03T00:50:57.808Z,12.00
2022-10-03T00:53:40.526Z,12.00
2022-10-03T00:56:39.220Z,11.90
2022-10-03T00:59:24.160Z,11.90
2022-10-03T01:01:53.391Z,11.80
2022-10-03T01:04:40.666Z,11.80
2022-10-03T01:07:22.982Z,11.70
2022-10-03T01:10:01.458Z,11.70
2022-10-03T01:12:54.170Z,11.60
2022-10-03T01:15:30.317Z,11.60
2022-10-03T01:18:15.764Z,11.60
2022-10-03T01:20:53.561Z,11.50
2022-10-03T01:23:49.110Z,11.50
2022-10-03T01:26:32.525Z,11.40
2022-10-03T01:29:48.954Z,11.40
2022-10-03T01:32:22.475Z,11.30
2022-10-03T01:35:02.056Z,11.30
2022-10-03T01:37:38.720Z,11.20
2022-10-03T01:40:14.706Z,11.20
2022-10-03T01:42:55.593Z,11.10
2022-10-03T01:45:32.994Z,11.10
2022-10-03T01:48:05.430Z,11.10
2022-10-03T01:50:38.960Z,11.00
2022-10-03T01:53:15.370Z,11.00
2022-10-03T01:55:55.555Z,11.00
2022-10-03T01:58:31.254Z,11.00
2022-10-03T02:01:08.472Z,11.00
2022-10-03T02:03:46.024Z,10.90
2022-10-03T02:06:22.373Z,10.90
2022-10-03T02:08:59.995Z,10.90
2022-10-03T02:11:34.749Z,10.80
2022-10-03T02:14:18.600Z,10.80
2022-10-03T02:16:59.031Z,10.80
2022-10-03T02:19:31.658Z,10.70
2022-10-03T02:22:14.949Z,10.70
2022-10-03T02:25:06.831Z,10.70
2022-10-03T02:28:12.406Z,10.60
2022-10-03T02:30:57.302Z,10.50
2022-10-03T02:33:56.350Z,10.50
2022-10-03T02:36:52.811Z,10.50
2022-10-03T02:39:52.306Z,10.50
2022-10-03T02:43:05.276Z,10.40
2022-10-03T02:46:11.593Z,10.40
2022-10-03T02:52:49.760Z,10.30
2022-10-03T02:56:14.154Z,10.20
2022-10-03T02:59:20.797Z,10.20
2022-10-03T03:02:08.270Z,10.20
2022-10-03T03:05:20.739Z,10.30
2022-10-03T03:08:22.692Z,10.20
2022-10-03T03:15:34.768Z,10.10
2022-10-03T03:18:33.333Z,10.10
2022-10-03T03:21:29.560Z,10.10
2022-10-03T03:24:39.790Z,10.10
2022-10-03T03:27:58.547Z,10.10
2022-10-03T03:30:38.806Z,10.00
2022-10-03T03:33:25.229Z,10.00
2022-10-03T03:36:10.889Z,9.90
2022-10-03T03:39:00.965Z,9.90
2022-10-03T03:42:10.191Z,9.90
2022-10-03T03:45:26.175Z,9.90
2022-10-03T03:48:04.904Z,9.90
2022-10-03T03:51:12.931Z,9.90
2022-10-03T03:54:15.689Z,9.90
2022-10-03T03:57:02.502Z,9.90
2022-10-03T03:59:44.726Z,9.90
2022-10-03T04:02:27.075Z,9.90
2022-10-03T04:05:12.258Z,9.80
2022-10-03T04:07:53.117Z,9.80
2022-10-03T04:10:47.792Z,9.80
2022-10-03T04:13:41.698Z,9.80
2022-10-03T04:16:57.413Z,9.80
2022-10-03T04:19:33.715Z,9.80
2022-10-03T04:22:15.633Z,9.80
2022-10-03T04:25:07.756Z,9.80
2022-10-03T04:27:52.885Z,9.80
2022-10-03T04:30:24.578Z,9.70
2022-10-03T04:33:06.821Z,9.70
2022-10-03T04:35:54.033Z,9.70
2022-10-03T04:38:39.481Z,9.70
2022-10-03T04:41:22.938Z,9.70
2022-10-03T04:44:00.275Z,9.70
2022-10-03T04:49:32.370Z,9.70
2022-10-03T04:52:08.133Z,9.70
2022-10-03T04:54:48.364Z,9.70
2022-10-03T04:57:26.139Z,9.70
2022-10-03T05:00:04.822Z,9.70
2022-10-03T05:02:43.704Z,9.70
2022-10-03T05:05:42.556Z,9.80
2022-10-03T05:11:20.902Z,9.80
2022-10-03T05:14:05.676Z,9.70
2022-10-03T05:23:02.073Z,9.80
2022-10-03T05:25:49.817Z,9.70
2022-10-03T05:28:36.400Z,9.80
2022-10-03T05:31:36.323Z,9.70
2022-10-03T05:34:41.754Z,9.70
2022-10-03T05:40:36.374Z,9.70
2022-10-03T05:43:11.210Z,9.60
2022-10-03T05:45:50.142Z,9.60
2022-10-03T05:48:33.019Z,9.60
2022-10-03T05:51:21.773Z,9.60
2022-10-03T05:54:25.873Z,9.50
2022-10-03T05:57:15.562Z,9.50
2022-10-03T06:00:02.836Z,9.50
2022-10-03T06:03:10.680Z,9.50
2022-10-03T06:06:02.279Z,9.60
2022-10-03T06:08:52.836Z,9.60
2022-10-03T06:11:47.318Z,9.60
2022-10-03T06:15:03.976Z,9.70
2022-10-03T06:17:55.841Z,9.70
2022-10-03T06:20:57.304Z,9.70
2022-10-03T06:23:45.060Z,9.80
2022-10-03T06:26:38.633Z,9.90
2022-10-03T06:29:55.652Z,10.00
2022-10-03T06:33:09.468Z,10.00
2022-10-03T06:36:14.932Z,10.10
2022-10-03T06:39:29.965Z,10.20
2022-10-03T06:42:53.993Z,10.40
2022-10-03T06:46:03.642Z,10.50
2022-10-03T06:49:12.224Z,10.60
2022-10-03T06:52:09.582Z,10.70
2022-10-03T06:55:28.819Z,10.80
2022-10-03T06:58:46.117Z,10.90
2022-10-03T07:01:57.096Z,10.90
2022-10-03T07:05:06.267Z,11.00
2022-10-03T07:08:02.755Z,11.00
2022-10-03T07:10:55.464Z,11.10
2022-10-03T07:14:09.056Z,11.10
2022-10-03T07:17:15.239Z,11.10
2022-10-03T07:20:03.185Z,11.10
2022-10-03T07:23:16.500Z,11.10
2022-10-03T07:26:22.386Z,11.10
2022-10-03T07:29:24.838Z,11.00
2022-10-03T07:32:07.659Z,11.10
2022-10-03T07:38:54.706Z,11.40
2022-10-03T07:41:55.160Z,11.50
2022-10-03T07:45:02.012Z,11.60
2022-10-03T07:48:23.358Z,11.70
2022-10-03T07:51:19.904Z,11.80
2022-10-03T07:54:42.342Z,11.90
2022-10-03T07:57:39.504Z,12.10
2022-10-03T08:00:26.565Z,12.40
2022-10-03T08:03:32.254Z,12.50
2022-10-03T08:06:19.269Z,12.70
2022-10-03T08:09:16.655Z,12.80
2022-10-03T08:12:32.789Z,12.80
2022-10-03T08:15:23.522Z,12.90
2022-10-03T08:18:47.297Z,12.90
2022-10-03T08:21:29.487Z,12.90
2022-10-03T08:24:28.402Z,13.00
2022-10-03T08:27:17.111Z,13.00
2022-10-03T08:30:13.477Z,13.10
2022-10-03T08:33:14.824Z,13.20
2022-10-03T08:36:18.921Z,13.30
2022-10-03T08:39:21.981Z,13.40
2022-10-03T08:42:54.637Z,13.50
2022-10-03T08:45:46.453Z,13.60
2022-10-03T08:48:48.574Z,13.70
2022-10-03T08:51:51.592Z,13.80
2022-10-03T08:54:52.196Z,13.90
2022-10-03T08:57:34.971Z,14.00
2022-10-03T09:00:24.377Z,14.00
2022-10-03T09:03:35.342Z,14.00
2022-10-03T09:06:52.791Z,14.10
2022-10-03T09:10:42.465Z,14.10
2022-10-03T09:14:01.372Z,14.20
2022-10-03T09:17:19.228Z,14.30
2022-10-03T09:20:32.181Z,14.40
2022-10-03T09:23:33.188Z,14.40
2022-10-03T09:26:20.845Z,14.50
2022-10-03T09:29:20.273Z,14.50
2022-10-03T09:32:19.998Z,14.60
2022-10-03T09:39:00.985Z,14.80
2022-10-03T09:42:18.701Z,14.90
2022-10-03T09:45:31.912Z,15.00
2022-10-03T09:48:19.067Z,15.10
2022-10-03T09:51:36.206Z,15.10
2022-10-03T09:54:49.060Z,15.20
2022-10-03T09:58:02.097Z,15.20
2022-10-03T10:00:50.209Z,15.20
2022-10-03T10:04:09.126Z,15.30
2022-10-03T10:07:00.905Z,15.40
2022-10-03T10:10:00.470Z,15.50
2022-10-03T10:13:07.484Z,15.60
2022-10-03T10:16:14.187Z,15.70
2022-10-03T10:19:16.851Z,15.80
2022-10-03T10:22:32.166Z,15.90
2022-10-03T10:25:37.557Z,16.00
2022-10-03T10:28:47.519Z,16.00
2022-10-03T10:31:58.092Z,16.00
2022-10-03T10:35:18.300Z,15.90
2022-10-03T10:38:34.188Z,15.90
2022-10-03T10:41:50.250Z,15.90
2022-10-03T10:45:09.086Z,15.80
2022-10-03T10:48:17.352Z,15.80
2022-10-03T10:51:56.717Z,15.80
2022-10-03T10:58:04.966Z,15.80
2022-10-03T11:08:19.676Z,15.90
2022-10-03T11:11:16.153Z,16.00
2022-10-03T11:18:01.453Z,16.10
2022-10-03T11:21:30.343Z,16.20
2022-10-03T11:24:44.891Z,16.30
2022-10-03T11:28:10.738Z,16.30
2022-10-03T11:31:20.751Z,16.30
2022-10-03T11:34:37.072Z,16.30
2022-10-03T11:37:18.201Z,16.30
2022-10-03T11:39:54.693Z,16.30
2022-10-03T11:42:36.040Z,16.30
2022-10-03T11:45:06.511Z,16.40
2022-10-03T11:47:51.165Z,16.40
2022-10-03T11:50:31.967Z,16.40
2022-10-03T11:53:31.054Z,16.40
2022-10-03T11:56:19.064Z,16.50
2022-10-03T11:59:18.629Z,16.50
2022-10-03T12:02:12.178Z,16.50
2022-10-03T12:04:52.504Z,16.50
2022-10-03T12:08:03.358Z,16.50
2022-10-03T12:10:57.768Z,16.50
2022-10-03T12:13:38.316Z,16.40
2022-10-03T12:16:10.479Z,16.40
2022-10-03T12:18:57.017Z,16.40
2022-10-03T12:21:32.020Z,16.30
2022-10-03T12:24:09.830Z,16.40
2022-10-03T12:26:47.445Z,16.30
2022-10-03T12:29:36.191Z,16.40
2022-10-03T12:32:20.692Z,16.40
2022-10-03T12:35:01.509Z,16.50
2022-10-03T12:38:00.155Z,16.50
2022-10-03T12:40:34.904Z,16.50
2022-10-03T12:43:27.632Z,16.60
2022-10-03T12:46:08.167Z,16.60
2022-10-03T12:48:47.893Z,16.70
2022-10-03T12:51:32.324Z,16.70
2022-10-03T12:54:10.273Z,16.80
2022-10-03T12:56:46.587Z,16.80
2022-10-03T12:59:21.270Z,16.90
2022-10-03T13:02:12.741Z,16.90
2022-10-03T13:04:48.863Z,17.00
2022-10-03T13:07:28.336Z,17.00
2022-10-03T13:10:26.276Z,17.00
2022-10-03T13:13:10.662Z,17.00
2022-10-03T13:15:53.344Z,16.90
2022-10-03T13:18:46.308Z,16.80
2022-10-03T13:21:45.569Z,16.80
2022-10-03T13:24:20.532Z,16.70
2022-10-03T13:26:59.620Z,16.60
2022-10-03T13:29:33.042Z,16.60
2022-10-03T13:32:19.104Z,16.60
2022-10-03T13:35:39.165Z,16.60
2022-10-03T13:38:47.426Z,16.60
2022-10-03T13:41:27.765Z,16.60
2022-10-03T13:44:02.104Z,16.60
2022-10-03T13:46:39.129Z,16.60
2022-10-03T13:49:20.608Z,16.60
2022-10-03T13:52:03.179Z,16.50
2022-10-03T13:54:54.376Z,16.50
2022-10-03T13:57:27.138Z,16.50
2022-10-03T14:00:08.325Z,16.40
2022-10-03T14:03:05.716Z,16.40
2022-10-03T14:06:01.333Z,16.40
2022-10-03T14:09:26.174Z,16.40
2022-10-03T14:12:24.809Z,16.40
2022-10-03T14:15:18.040Z,16.40
2022-10-03T14:17:58.532Z,16.40
2022-10-03T14:20:31.043Z,16.40
2022-10-03T14:23:16.499Z,16.40
2022-10-03T14:25:50.378Z,16.40
2022-10-03T14:28:26.736Z,16.40
2022-10-03T14:31:16.613Z,16.40
2022-10-03T14:33:53.738Z,16.40
2022-10-03T14:36:32.581Z,16.40
2022-10-03T14:39:23.739Z,16.40
2022-10-03T14:42:33.339Z,16.40
2022-10-03T14:45:09.826Z,16.40
2022-10-03T14:47:41.354Z,16.40
2022-10-03T14:50:18.633Z,16.40
2022-10-03T14:52:51.328Z,16.40
2022-10-03T14:55:29.001Z,16.40
2022-10-03T14:58:11.988Z,16.40
2022-10-03T15:00:47.668Z,16.40
2022-10-03T15:03:39.749Z,16.40
2022-10-03T15:06:36.163Z,16.50
2022-10-03T15:09:12.545Z,16.50
2022-10-03T15:11:49.572Z,16.60
2022-10-03T15:14:20.123Z,16.80
2022-10-03T15:16:56.514Z,17.00
2022-10-03T15:19:31.832Z,17.20
2022-10-03T15:22:23.653Z,17.40
2022-10-03T15:24:54.782Z,17.30
2022-10-03T15:27:24.776Z,17.10
2022-10-03T15:29:56.696Z,17.00
2022-10-03T15:32:29.392Z,16.80
2022-10-03T15:35:02.929Z,16.70
2022-10-03T15:37:38.404Z,16.60
2022-10-03T15:42:51.401Z,16.50
2022-10-03T15:45:25.703Z,16.50
2022-10-03T15:47:58.280Z,16.40
2022-10-03T15:50:33.371Z,16.40
2022-10-03T15:53:31.540Z,16.40
2022-10-03T15:56:09.917Z,16.40
2022-10-03T15:58:46.429Z,16.40
2022-10-03T16:01:21.456Z,16.30
2022-10-03T16:03:54.922Z,16.30
2022-10-03T16:06:26.899Z,16.30
2022-10-03T16:09:00.856Z,16.30
2022-10-03T16:11:34.210Z,16.20
2022-10-03T16:14:17.638Z,16.20
2022-10-03T16:16:53.219Z,16.20
2022-10-03T16:19:32.146Z,16.10
2022-10-03T16:22:17.533Z,16.10
2022-10-03T16:25:05.650Z,16.00
2022-10-03T16:27:37.292Z,16.00
2022-10-03T16:30:22.248Z,15.90
2022-10-03T16:33:00.893Z,15.90
2022-10-03T16:35:34.397Z,15.90
2022-10-03T16:38:08.037Z,15.80
2022-10-03T16:43:22.213Z,15.80
2022-10-03T16:45:50.646Z,15.80
2022-10-03T16:48:41.788Z,15.70
2022-10-03T16:51:20.030Z,15.70
2022-10-03T16:54:06.790Z,15.60
2022-10-03T16:56:43.190Z,15.60
2022-10-03T16:59:19.234Z,15.60
2022-10-03T17:01:51.969Z,15.50
2022-10-03T17:04:25.236Z,15.50
2022-10-03T17:07:02.926Z,15.40
2022-10-03T17:09:45.740Z,15.40
2022-10-03T17:12:40.572Z,15.40
2022-10-03T17:15:12.365Z,15.40
2022-10-03T17:17:50.422Z,15.30
2022-10-03T17:20:28.759Z,15.30
2022-10-03T17:23:02.660Z,15.30
2022-10-03T17:25:41.137Z,15.30
2022-10-03T17:28:15.979Z,15.20
2022-10-03T17:31:02.481Z,15.20
2022-10-03T17:33:39.185Z,15.20
2022-10-03T17:36:45.916Z,15.20
2022-10-03T17:39:40.131Z,15.10
2022-10-03T17:45:26.688Z,15.00
2022-10-03T17:48:00.989Z,14.90
2022-10-03T17:50:32.798Z,14.90
2022-10-03T17:53:02.399Z,14.90
2022-10-03T17:55:52.265Z,14.80
2022-10-03T17:58:24.596Z,14.80
2022-10-03T18:01:08.659Z,14.70
2022-10-03T18:03:44.139Z,14.70
2022-10-03T18:06:55.335Z,14.60
2022-10-03T18:09:31.823Z,14.60
2022-10-03T18:12:29.551Z,14.50
2022-10-03T18:15:24.199Z,14.50
2022-10-03T18:18:04.974Z,14.50
2022-10-03T18:20:51.515Z,14.50
2022-10-03T18:23:54.801Z,14.50
2022-10-03T18:26:32.395Z,14.50
2022-10-03T18:29:24.233Z,14.40
2022-10-03T18:32:07.620Z,14.40
2022-10-03T18:34:46.260Z,14.40
2022-10-03T18:37:55.328Z,14.40
2022-10-03T18:40:32.239Z,14.40
2022-10-03T18:43:01.491Z,14.40
2022-10-03T18:45:34.986Z,14.40
2022-10-03T18:48:12.539Z,14.40
2022-10-03T18:50:54.893Z,14.40
2022-10-03T18:53:32.844Z,14.40
2022-10-03T18:56:10.716Z,14.40
2022-10-03T19:01:55.196Z,14.40
2022-10-03T19:04:37.883Z,14.40
2022-10-03T19:07:21.683Z,14.30
2022-10-03T19:10:22.724Z,14.30
2022-10-03T19:12:55.177Z,14.30
2022-10-03T19:15:34.355Z,14.20
2022-10-03T19:18:22.230Z,14.20
2022-10-03T19:20:54.691Z,14.20
2022-10-03T19:23:29.647Z,14.20
2022-10-03T19:26:19.722Z,14.10
2022-10-03T19:28:50.146Z,14.10
2022-10-03T19:31:23.982Z,14.10
2022-10-03T19:34:00.110Z,14.10
2022-10-03T19:36:31.466Z,14.00
2022-10-03T19:39:00.500Z,14.00
2022-10-03T19:41:33.618Z,14.00
2022-10-03T19:44:08.082Z,14.00
2022-10-03T19:46:48.728Z,14.10
2022-10-03T19:49:36.534Z,14.00
2022-10-03T19:52:36.788Z,14.00
2022-10-03T19:55:12.732Z,14.00
2022-10-03T19:58:08.737Z,14.00
2022-10-03T20:00:38.182Z,14.00
2022-10-03T20:03:13.917Z,13.90
2022-10-03T20:05:53.645Z,13.90
2022-10-03T20:08:27.499Z,13.80
2022-10-03T20:11:16.921Z,13.80
2022-10-03T20:13:47.910Z,13.80
2022-10-03T20:16:20.195Z,13.80
2022-10-03T20:18:52.129Z,13.70
2022-10-03T20:21:26.685Z,13.70
2022-10-03T20:23:56.518Z,13.60
2022-10-03T20:26:33.430Z,13.50
2022-10-03T20:29:24.327Z,13.50
2022-10-03T20:31:59.864Z,13.40
2022-10-03T20:34:38.037Z,13.30
2022-10-03T20:37:26.303Z,13.30
2022-10-03T20:40:02.011Z,13.20
2022-10-03T20:42:32.373Z,13.20
2022-10-03T20:45:04.397Z,13.10
2022-10-03T20:47:57.963Z,13.10
2022-10-03T20:50:31.801Z,13.10
2022-10-03T20:53:02.676Z,13.00
2022-10-03T20:55:35.263Z,13.00
2022-10-03T20:58:18.404Z,13.00
2022-10-03T21:00:50.362Z,13.00
2022-10-03T21:03:29.160Z,13.00
2022-10-03T21:06:15.036Z,13.00
2022-10-03T21:08:45.630Z,13.00
2022-10-03T21:11:23.623Z,13.00
2022-10-03T21:13:56.858Z,13.00
2022-10-03T21:16:30.729Z,13.00
2022-10-03T21:19:09.606Z,13.00
2022-10-03T21:21:43.389Z,13.00
2022-10-03T21:24:30.420Z,13.00
2022-10-03T21:27:03.313Z,13.00
2022-10-03T21:29:36.906Z,13.00
2022-10-03T21:32:25.432Z,13.00
2022-10-03T21:35:01.691Z,13.00
2022-10-03T21:37:36.995Z,13.00
2022-10-03T21:40:21.749Z,13.00
2022-10-03T21:42:59.681Z,13.10
2022-10-03T21:45:33.632Z,13.10
2022-10-03T21:48:11.266Z,13.10
2022-10-03T21:50:48.036Z,13.10
2022-10-03T21:53:19.710Z,13.10
2022-10-03T21:56:08.517Z,13.10
2022-10-03T21:58:50.767Z,13.10
2022-10-03T22:01:28.812Z,13.10
2022-10-03T22:04:05.727Z,13.10
2022-10-03T22:06:38.576Z,13.20
2022-10-03T22:09:14.509Z,13.10
2022-10-03T22:11:50.187Z,13.10
2022-10-03T22:14:32.457Z,13.10
2022-10-03T22:17:09.048Z,13.00
2022-10-03T22:19:40.327Z,13.00
2022-10-03T22:22:20.641Z,13.10
2022-10-03T22:25:03.084Z,13.10
2022-10-03T22:27:41.300Z,13.10
2022-10-03T22:30:12.221Z,13.10
2022-10-03T22:32:48.649Z,13.10
2022-10-03T22:35:34.073Z,13.10
2022-10-03T22:38:02.865Z,13.10
2022-10-03T22:40:32.168Z,13.00
2022-10-03T22:43:04.370Z,13.10
2022-10-03T22:45:34.987Z,13.10
2022-10-03T22:48:05.981Z,13.10
2022-10-03T22:50:41.415Z,13.10
2022-10-03T22:53:11.364Z,13.10
2022-10-03T22:55:43.725Z,13.10
2022-10-03T22:58:14.279Z,13.10
2022-10-03T23:00:43.995Z,13.10
2022-10-03T23:03:15.112Z,13.10
2022-10-03T23:06:02.734Z,13.10
2022-10-03T23:08:45.473Z,13.10
2022-10-03T23:11:20.164Z,13.10
2022-10-03T23:13:49.428Z,13.10
2022-10-03T23:16:31.402Z,13.10
2022-10-03T23:19:19.507Z,13.10
2022-10-03T23:21:48.461Z,13.20
2022-10-03T23:24:24.107Z,13.20
2022-10-03T23:27:13.774Z,13.20
2022-10-03T23:29:42.998Z,13.20
2022-10-03T23:32:12.572Z,13.10
2022-10-03T23:35:08.280Z,13.10
2022-10-03T23:37:44.341Z,13.10
2022-10-03T23:40:40.749Z,13.10
2022-10-03T23:43:29.082Z,13.10
2022-10-03T23:46:00.930Z,13.10
2022-10-03T23:48:33.211Z,13.10
2022-10-03T23:51:04.171Z,13.10
2022-10-03T23:53:38.566Z,13.20
2022-10-03T23:56:23.279Z,13.20
2022-10-03T23:58:57.646Z,13.20
